Time;durP1;ratioP1;P1;durP2;ratioP2;P2;SDS_P1;SDS_P2;PMS_P1;PMS_P2;Temp;Humidity;BMP_temperature;BMP_pressure;BME280_temperature;BME280_humidity;BME280_pressure;Samples;Min_cycle;Max_cycle;Signal;HPM_P1;HPM_P2
2021/01/03 00:00:33;;;;;;;48.40;30.47;;;4.00;99.90;;;;;;5034710;28;20449;-69
2021/01/03 00:03:00;;;;;;;46.53;31.27;;;4.00;99.90;;;;;;5035222;28;20444;-70
2021/01/03 00:05:29;;;;;;;46.30;30.63;;;4.00;99.90;;;;;;5029927;28;20472;-70
2021/01/03 00:07:56;;;;;;;45.43;31.97;;;4.00;99.90;;;;;;5016093;28;20457;-70
2021/01/03 00:10:22;;;;;;;49.87;34.07;;;4.00;99.90;;;;;;5035124;28;20455;-70
2021/01/03 00:12:48;;;;;;;45.47;31.77;;;4.00;99.90;;;;;;5034737;28;20502;-70
2021/01/03 00:15:19;;;;;;;51.90;34.40;;;4.00;99.90;;;;;;5034486;28;20472;-70
2021/01/03 00:17:47;;;;;;;47.90;34.50;;;4.00;99.90;;;;;;5033265;28;20452;-70
2021/01/03 00:20:16;;;;;;;59.23;34.57;;;4.00;99.90;;;;;;5029588;28;20449;-70
2021/01/03 00:22:42;;;;;;;52.30;33.33;;;4.00;99.90;;;;;;5015290;28;20441;-69
2021/01/03 00:25:10;;;;;;;57.80;34.53;;;4.00;99.90;;;;;;5014922;28;20640;-70
2021/01/03 00:27:36;;;;;;;53.43;36.40;;;4.00;99.90;;;;;;5023318;28;20455;-70
2021/01/03 00:30:04;;;;;;;57.77;36.00;;;3.90;99.90;;;;;;5047010;28;20451;-70
2021/01/03 00:32:31;;;;;;;51.70;35.50;;;4.00;99.90;;;;;;5042856;28;20480;-70
2021/01/03 00:34:59;;;;;;;54.73;36.37;;;4.00;99.90;;;;;;5036387;28;20983;-69
2021/01/03 00:37:25;;;;;;;52.97;34.97;;;4.00;99.90;;;;;;5036543;28;21022;-70
2021/01/03 00:39:52;;;;;;;47.90;34.47;;;4.00;99.90;;;;;;5034658;28;20464;-69
2021/01/03 00:42:18;;;;;;;55.83;38.57;;;4.00;99.90;;;;;;5034858;28;20453;-69
2021/01/03 00:44:45;;;;;;;55.30;37.00;;;4.00;99.90;;;;;;5034548;28;20464;-69
2021/01/03 00:47:11;;;;;;;54.17;36.17;;;4.00;99.90;;;;;;5034297;28;20453;-69
2021/01/03 00:49:37;;;;;;;59.33;38.77;;;4.00;99.90;;;;;;5032728;28;20454;-69
2021/01/03 00:52:05;;;;;;;52.87;35.40;;;4.10;99.90;;;;;;5020269;28;20476;-69
2021/01/03 00:54:31;;;;;;;57.30;37.70;;;4.00;99.90;;;;;;5033795;28;20465;-69
2021/01/03 00:56:57;;;;;;;52.57;36.77;;;4.10;99.90;;;;;;5033962;28;20960;-69
2021/01/03 00:59:23;;;;;;;53.03;36.47;;;4.10;99.90;;;;;;5034009;28;20834;-69
2021/01/03 01:01:50;;;;;;;58.30;38.27;;;4.10;99.90;;;;;;5046010;28;20527;-69
2021/01/03 01:04:17;;;;;;;59.80;35.43;;;4.10;99.90;;;;;;5053772;28;20471;-69
2021/01/03 01:06:43;;;;;;;57.73;37.57;;;4.10;99.90;;;;;;5025838;28;20441;-69
2021/01/03 01:09:10;;;;;;;55.23;35.90;;;4.10;99.90;;;;;;5025310;28;20458;-68
2021/01/03 01:11:39;;;;;;;61.50;37.10;;;4.10;99.90;;;;;;5034106;28;20453;-69
2021/01/03 01:14:05;;;;;;;58.30;38.73;;;4.10;99.90;;;;;;5033380;28;20539;-70
2021/01/03 01:16:33;;;;;;;53.63;34.93;;;4.10;99.90;;;;;;5033777;28;20461;-69
2021/01/03 01:18:59;;;;;;;53.90;36.57;;;4.10;99.90;;;;;;5033537;28;20448;-69
2021/01/03 01:21:25;;;;;;;51.93;34.83;;;4.10;99.90;;;;;;5033302;28;20463;-69
2021/01/03 01:23:51;;;;;;;51.27;36.80;;;4.10;99.90;;;;;;5032896;28;20886;-69
2021/01/03 01:26:19;;;;;;;50.33;33.80;;;4.10;99.90;;;;;;5033957;28;20451;-69
2021/01/03 01:28:45;;;;;;;59.10;34.73;;;4.00;99.90;;;;;;5033615;28;20467;-69
2021/01/03 01:31:12;;;;;;;49.67;34.07;;;4.00;99.90;;;;;;5032563;28;20453;-69
2021/01/03 01:33:38;;;;;;;52.47;35.53;;;4.00;99.90;;;;;;5033636;28;20488;-69
2021/01/03 01:36:05;;;;;;;53.37;36.27;;;4.00;99.90;;;;;;5033675;28;20456;-69
2021/01/03 01:38:32;;;;;;;55.73;35.13;;;4.00;99.90;;;;;;5023411;28;20458;-69
2021/01/03 01:40:59;;;;;;;52.77;35.97;;;4.10;99.90;;;;;;5034033;28;20453;-69
2021/01/03 01:43:26;;;;;;;49.87;34.03;;;4.00;99.90;;;;;;5033665;28;20824;-69
2021/01/03 01:45:52;;;;;;;50.17;32.80;;;4.00;99.90;;;;;;5033421;28;20460;-69
2021/01/03 01:48:21;;;;;;;56.73;35.77;;;4.00;99.90;;;;;;5033521;28;20451;-69
2021/01/03 01:50:51;;;;;;;57.97;36.83;;;4.00;99.90;;;;;;5033793;28;20502;-69
2021/01/03 01:53:26;;;;;;;63.30;37.00;;;3.90;99.90;;;;;;5033455;28;20486;-69
2021/01/03 01:56:01;;;;;;;59.03;37.60;;;3.90;99.90;;;;;;5033692;28;20457;-69
2021/01/03 01:58:39;;;;;;;64.30;38.40;;;4.00;99.90;;;;;;5033614;28;20470;-69
2021/01/03 02:01:10;;;;;;;61.60;39.03;;;4.00;99.90;;;;;;5033059;28;20456;-69
2021/01/03 02:03:42;;;;;;;58.40;37.47;;;4.00;99.90;;;;;;5036510;28;20470;-69
2021/01/03 02:06:15;;;;;;;55.17;36.80;;;3.90;99.90;;;;;;5032053;28;20450;-69
2021/01/03 02:08:49;;;;;;;65.07;37.17;;;3.90;99.90;;;;;;5017327;28;20453;-69
2021/01/03 02:11:19;;;;;;;61.37;38.90;;;3.90;99.90;;;;;;5022739;28;20453;-69
2021/01/03 02:13:49;;;;;;;64.50;38.70;;;3.80;99.90;;;;;;5047838;22;20472;-71
2021/01/03 02:16:19;;;;;;;59.20;39.97;;;3.80;99.90;;;;;;5053388;28;20858;-67
2021/01/03 02:18:47;;;;;;;63.97;37.93;;;3.70;99.90;;;;;;5056160;28;20481;-68
2021/01/03 02:21:20;;;;;;;65.07;39.17;;;3.70;99.90;;;;;;5048185;28;20440;-67
2021/01/03 02:23:54;;;;;;;69.47;40.57;;;3.60;99.90;;;;;;5052109;28;20464;-67
2021/01/03 02:26:24;;;;;;;69.07;39.43;;;3.60;99.90;;;;;;5062499;28;20451;-67
2021/01/03 02:28:51;;;;;;;65.33;38.77;;;3.60;99.90;;;;;;5052350;28;20492;-67
2021/01/03 02:31:23;;;;;;;67.70;39.47;;;3.60;99.90;;;;;;5052719;28;20479;-66
2021/01/03 02:33:51;;;;;;;66.83;37.60;;;3.60;99.90;;;;;;5061099;28;20498;-69
2021/01/03 02:36:27;;;;;;;66.07;38.97;;;3.60;99.90;;;;;;5071941;28;20443;-68
2021/01/03 02:39:02;;;;;;;69.53;39.70;;;3.60;99.90;;;;;;5070713;28;20461;-68
2021/01/03 02:41:30;;;;;;;67.90;39.73;;;3.60;99.90;;;;;;5064412;28;20451;-70
2021/01/03 02:43:56;;;;;;;72.77;39.90;;;3.50;99.90;;;;;;5051670;28;20464;-70
2021/01/03 02:46:23;;;;;;;64.17;39.37;;;3.60;99.90;;;;;;5057231;28;20835;-70
2021/01/03 02:48:49;;;;;;;71.53;40.73;;;3.60;99.90;;;;;;5070997;28;20980;-70
2021/01/03 02:51:16;;;;;;;70.67;40.63;;;3.60;99.90;;;;;;5069614;28;21073;-70
2021/01/03 02:53:42;;;;;;;72.33;41.50;;;3.70;99.90;;;;;;5071788;28;20490;-69
2021/01/03 02:56:08;;;;;;;60.10;38.57;;;3.70;99.90;;;;;;5070403;28;20500;-69
2021/01/03 02:58:35;;;;;;;76.10;40.70;;;3.70;99.90;;;;;;5072058;28;20443;-69
2021/01/03 03:01:02;;;;;;;70.40;41.33;;;3.80;99.90;;;;;;5054284;28;20951;-70
2021/01/03 03:03:28;;;;;;;72.50;42.27;;;3.80;99.90;;;;;;5070628;28;21025;-70
2021/01/03 03:05:54;;;;;;;75.77;41.67;;;3.80;99.90;;;;;;5063466;28;20451;-70
2021/01/03 03:08:20;;;;;;;69.37;38.50;;;3.80;99.90;;;;;;5062466;28;20444;-70
2021/01/03 03:10:47;;;;;;;65.60;41.90;;;3.80;99.90;;;;;;5051590;28;21009;-69
2021/01/03 03:13:13;;;;;;;69.60;38.83;;;3.80;99.90;;;;;;5052081;28;20483;-69
2021/01/03 03:15:40;;;;;;;67.10;38.40;;;3.90;99.90;;;;;;5053875;28;20479;-70
2021/01/03 03:18:08;;;;;;;66.13;39.10;;;3.90;99.90;;;;;;5063377;28;20451;-70
2021/01/03 03:20:35;;;;;;;57.73;36.90;;;3.90;99.90;;;;;;5069733;28;20806;-69
2021/01/03 03:23:01;;;;;;;53.63;36.00;;;3.90;99.90;;;;;;5071719;28;20458;-69
2021/01/03 03:25:27;;;;;;;64.73;36.40;;;4.00;99.90;;;;;;5072183;28;20463;-69
2021/01/03 03:27:54;;;;;;;56.03;34.13;;;4.00;99.90;;;;;;5078186;28;20496;-70
2021/01/03 03:30:22;;;;;;;54.77;33.17;;;3.90;99.90;;;;;;5061744;28;20448;-70
2021/01/03 03:32:52;;;;;;;58.80;36.50;;;3.90;99.90;;;;;;5071370;28;20482;-69
2021/01/03 03:35:23;;;;;;;58.30;33.07;;;4.00;99.90;;;;;;5061790;28;20511;-70
2021/01/03 03:37:50;;;;;;;51.20;34.57;;;3.90;99.90;;;;;;5057765;28;20451;-69
2021/01/03 03:40:17;;;;;;;48.50;32.10;;;4.00;99.90;;;;;;5057551;28;20505;-70
2021/01/03 03:42:43;;;;;;;50.30;30.73;;;4.00;99.90;;;;;;5057903;28;20444;-69
2021/01/03 03:45:11;;;;;;;53.07;33.13;;;4.10;99.90;;;;;;5069859;28;20470;-69
2021/01/03 03:47:38;;;;;;;50.60;31.93;;;4.10;99.90;;;;;;5076758;28;20450;-69
2021/01/03 03:50:07;;;;;;;44.53;30.43;;;4.10;99.90;;;;;;5068605;28;20447;-70
2021/01/03 03:52:34;;;;;;;48.03;32.27;;;4.00;99.90;;;;;;5057796;28;20487;-69
2021/01/03 03:55:00;;;;;;;46.73;30.47;;;4.00;99.90;;;;;;5065007;28;20553;-70
2021/01/03 03:57:26;;;;;;;43.80;28.80;;;4.00;99.90;;;;;;5077831;28;20450;-70
2021/01/03 03:59:52;;;;;;;43.73;29.23;;;4.00;99.90;;;;;;5071046;28;20450;-68
2021/01/03 04:02:19;;;;;;;48.90;30.90;;;4.00;99.90;;;;;;5060166;28;20448;-69
2021/01/03 04:04:45;;;;;;;48.13;32.60;;;4.00;99.90;;;;;;5056863;28;20542;-69
2021/01/03 04:07:12;;;;;;;46.57;35.20;;;3.80;99.90;;;;;;5074059;28;20457;-69
2021/01/03 04:09:39;;;;;;;41.70;33.03;;;3.80;99.90;;;;;;5068612;28;20442;-69
2021/01/03 04:12:05;;;;;;;50.07;34.73;;;3.70;99.90;;;;;;5063927;28;20486;-69
2021/01/03 04:14:32;;;;;;;46.83;33.20;;;3.70;99.90;;;;;;5058288;28;20520;-69
2021/01/03 04:17:00;;;;;;;46.90;33.37;;;3.70;99.90;;;;;;5068845;28;20521;-69
2021/01/03 04:19:28;;;;;;;45.27;31.57;;;3.70;99.90;;;;;;5057925;28;20455;-70
2021/01/03 04:21:56;;;;;;;43.70;31.87;;;3.70;99.90;;;;;;5057679;28;20454;-70
2021/01/03 04:24:25;;;;;;;42.93;29.27;;;3.70;99.90;;;;;;5069380;28;20471;-70
2021/01/03 04:26:53;;;;;;;42.37;30.37;;;3.60;99.90;;;;;;5070280;28;20451;-70
2021/01/03 04:29:20;;;;;;;36.03;27.87;;;3.50;99.90;;;;;;5062685;28;20504;-71
2021/01/03 04:31:46;;;;;;;35.87;26.63;;;3.50;99.90;;;;;;5077546;28;20450;-71
2021/01/03 04:34:13;;;;;;;35.70;27.07;;;3.50;99.90;;;;;;5059039;28;20478;-70
2021/01/03 04:36:39;;;;;;;36.90;28.53;;;3.60;99.90;;;;;;5071943;28;20451;-69
2021/01/03 04:39:06;;;;;;;35.40;29.00;;;3.50;99.90;;;;;;5062562;28;20475;-70
2021/01/03 04:41:37;;;;;;;38.30;28.30;;;3.50;99.90;;;;;;5054365;28;20506;-69
2021/01/03 04:44:10;;;;;;;43.40;28.97;;;3.50;99.90;;;;;;5064471;28;20467;-69
2021/01/03 04:46:40;;;;;;;33.20;26.73;;;3.50;99.90;;;;;;5069709;28;20452;-69
2021/01/03 04:49:15;;;;;;;43.50;29.73;;;3.50;99.90;;;;;;5054318;28;20470;-70
2021/01/03 04:52:10;;;;;;;38.27;28.43;;;3.60;99.90;;;;;;5060033;28;20453;-70
2021/01/03 04:54:50;;;;;;;37.27;28.20;;;3.60;99.90;;;;;;5073421;28;20459;-68
2021/01/03 04:57:28;;;;;;;45.07;30.27;;;3.60;99.90;;;;;;5063568;28;20451;-70
2021/01/03 04:59:57;;;;;;;36.00;27.80;;;3.60;99.90;;;;;;5062532;28;20442;-70
2021/01/03 05:02:50;;;;;;;38.57;25.90;;;3.70;99.90;;;;;;5073204;28;20447;-69
2021/01/03 05:05:26;;;;;;;30.03;23.80;;;3.60;99.90;;;;;;5069481;28;20504;-68
2021/01/03 05:08:02;;;;;;;29.20;22.80;;;3.60;99.90;;;;;;5053945;28;20458;-70
2021/01/03 05:10:29;;;;;;;28.93;21.97;;;3.50;99.90;;;;;;5058377;28;20503;-65
2021/01/03 05:13:03;;;;;;;28.07;22.40;;;3.50;99.90;;;;;;5044959;28;20480;-66
2021/01/03 05:15:33;;;;;;;28.20;21.93;;;3.50;99.90;;;;;;5060645;28;20471;-67
2021/01/03 05:18:00;;;;;;;27.80;22.90;;;3.40;99.90;;;;;;5053660;28;20455;-68
2021/01/03 05:20:26;;;;;;;26.73;22.23;;;3.30;99.90;;;;;;5066455;28;20451;-65
2021/01/03 05:22:53;;;;;;;24.17;20.63;;;3.40;99.90;;;;;;5073611;28;20447;-66
2021/01/03 05:25:38;;;;;;;22.90;20.30;;;3.40;99.90;;;;;;5061533;28;21163;-66
2021/01/03 05:28:08;;;;;;;27.30;21.93;;;3.40;99.90;;;;;;5055723;28;20459;-66
2021/01/03 05:30:34;;;;;;;22.93;20.43;;;3.50;99.90;;;;;;5062080;28;20477;-66
2021/01/03 05:33:09;;;;;;;24.13;21.27;;;3.50;99.90;;;;;;5073097;28;20554;-66
2021/01/03 05:35:38;;;;;;;25.50;21.47;;;3.50;99.90;;;;;;5064312;28;20497;-66
2021/01/03 05:38:06;;;;;;;28.93;23.03;;;3.60;99.90;;;;;;5053492;28;20456;-67
2021/01/03 05:40:35;;;;;;;22.73;20.30;;;3.60;99.90;;;;;;5060469;28;20469;-66
2021/01/03 05:43:10;;;;;;;24.53;21.60;;;3.60;99.90;;;;;;5060786;28;20447;-69
2021/01/03 05:45:44;;;;;;;26.50;23.70;;;3.60;99.90;;;;;;5060252;28;20827;-66
2021/01/03 05:48:20;;;;;;;27.20;23.13;;;3.60;99.90;;;;;;5053394;28;20451;-68
2021/01/03 05:50:46;;;;;;;26.10;22.93;;;3.60;99.90;;;;;;5053813;28;20451;-66
2021/01/03 05:53:19;;;;;;;27.93;24.27;;;3.60;99.90;;;;;;5052827;28;20487;-67
2021/01/03 05:55:52;;;;;;;28.43;23.50;;;3.60;99.90;;;;;;5060812;28;20985;-66
2021/01/03 05:58:26;;;;;;;25.70;22.97;;;3.60;99.90;;;;;;5072638;28;20451;-68
2021/01/03 06:00:53;;;;;;;25.70;21.63;;;3.60;99.90;;;;;;5068858;28;20451;-66
2021/01/03 06:03:28;;;;;;;28.10;23.83;;;3.70;99.90;;;;;;5072523;28;20472;-67
2021/01/03 06:06:00;;;;;;;25.00;21.40;;;3.70;99.90;;;;;;5063392;28;20958;-67
2021/01/03 06:08:28;;;;;;;25.90;22.20;;;3.70;99.90;;;;;;5063474;28;20448;-65
2021/01/03 06:10:55;;;;;;;24.67;21.03;;;3.70;99.90;;;;;;5060495;28;20454;-68
2021/01/03 06:13:25;;;;;;;24.77;20.63;;;3.70;99.90;;;;;;5072409;28;20493;-66
2021/01/03 06:15:57;;;;;;;26.13;21.77;;;3.60;99.90;;;;;;5066623;28;20831;-67
2021/01/03 06:18:31;;;;;;;24.03;19.70;;;3.70;99.90;;;;;;5052295;28;20510;-66
2021/01/03 06:20:59;;;;;;;23.10;20.70;;;3.60;99.90;;;;;;5052603;28;20448;-67
2021/01/03 06:23:33;;;;;;;23.17;19.83;;;3.60;99.90;;;;;;5052624;28;20444;-69
2021/01/03 06:26:04;;;;;;;22.10;19.80;;;3.60;99.90;;;;;;5053585;28;20455;-66
2021/01/03 06:28:41;;;;;;;24.03;21.43;;;3.60;99.90;;;;;;5070187;28;20949;-68
2021/01/03 06:31:31;;;;;;;25.23;21.40;;;3.60;99.90;;;;;;5063715;28;20950;-66
2021/01/03 06:34:09;;;;;;;24.30;21.00;;;3.60;99.90;;;;;;5060452;28;20493;-67
2021/01/03 06:36:53;;;;;;;22.90;20.50;;;3.60;99.90;;;;;;5071272;28;20453;-66
2021/01/03 06:39:39;;;;;;;23.83;21.07;;;3.60;99.90;;;;;;5052285;28;20451;-67
2021/01/03 06:42:15;;;;;;;24.60;21.50;;;3.60;99.90;;;;;;5061946;28;20524;-68
2021/01/03 06:44:53;;;;;;;27.20;22.40;;;3.60;99.90;;;;;;5063018;28;20474;-65
2021/01/03 06:47:56;;;;;;;24.17;21.40;;;3.60;99.90;;;;;;5051793;28;20977;-70
2021/01/03 06:50:55;;;;;;;25.30;20.60;;;3.60;99.90;;;;;;5052376;28;20428;-68
2021/01/03 06:53:57;;;;;;;23.30;21.00;;;3.60;99.90;;;;;;5066384;28;21150;-69
2021/01/03 06:57:08;;;;;;;24.07;20.47;;;3.50;99.90;;;;;;5068989;28;20450;-67
2021/01/03 06:59:50;;;;;;;24.13;21.67;;;3.60;99.90;;;;;;5040667;28;20467;-68
2021/01/03 07:02:19;;;;;;;24.57;21.70;;;3.50;99.90;;;;;;5051578;28;20448;-69
2021/01/03 07:04:46;;;;;;;25.93;21.50;;;3.60;99.90;;;;;;5051195;28;20467;-66
2021/01/03 07:07:16;;;;;;;24.37;21.73;;;3.60;99.90;;;;;;5061517;28;20497;-67
2021/01/03 07:09:56;;;;;;;23.20;20.27;;;3.60;99.90;;;;;;5051496;28;20447;-67
2021/01/03 07:12:35;;;;;;;24.40;21.87;;;3.50;99.90;;;;;;5053993;28;20487;-67
2021/01/03 07:15:09;;;;;;;23.20;20.80;;;3.50;99.90;;;;;;5053820;28;20479;-66
2021/01/03 07:18:30;;;;;;;25.23;20.40;;;3.50;99.90;;;;;;5071511;28;20452;-66
2021/01/03 07:21:17;;;;;;;23.80;21.33;;;3.50;99.90;;;;;;5065448;28;20501;-67
2021/01/03 07:23:47;;;;;;;25.03;21.43;;;3.50;99.90;;;;;;5051361;28;20503;-66
2021/01/03 07:26:23;;;;;;;25.33;22.63;;;3.50;99.90;;;;;;5051692;28;20448;-67
2021/01/03 07:28:53;;;;;;;23.77;20.07;;;3.50;99.90;;;;;;5057209;28;20969;-69
2021/01/03 07:31:48;;;;;;;21.27;19.07;;;3.50;99.90;;;;;;5052094;28;20456;-69
2021/01/03 07:34:21;;;;;;;21.53;19.23;;;3.50;99.90;;;;;;5048926;28;20479;-68
2021/01/03 07:36:51;;;;;;;20.50;18.43;;;3.50;99.90;;;;;;5071797;28;20453;-70
2021/01/03 07:39:29;;;;;;;21.87;19.50;;;3.50;99.90;;;;;;5068744;28;20439;-70
2021/01/03 07:42:22;;;;;;;21.30;19.10;;;3.50;99.90;;;;;;5051513;28;20443;-70
2021/01/03 07:44:49;;;;;;;23.40;19.20;;;3.50;99.90;;;;;;5057770;28;20531;-70
2021/01/03 07:47:35;;;;;;;20.83;18.63;;;3.50;99.90;;;;;;5062778;28;20470;-70
2021/01/03 07:50:20;;;;;;;22.67;20.40;;;3.50;99.90;;;;;;5051075;28;20443;-70
2021/01/03 07:52:47;;;;;;;20.33;18.20;;;3.50;99.90;;;;;;5052498;28;20533;-70
2021/01/03 07:55:28;;;;;;;17.93;16.07;;;3.40;99.90;;;;;;5050939;28;20463;-70
2021/01/03 07:57:58;;;;;;;19.57;17.47;;;3.40;99.90;;;;;;5050960;28;20443;-70
2021/01/03 08:00:26;;;;;;;20.93;18.80;;;3.40;99.90;;;;;;5061140;28;20458;-70
2021/01/03 08:03:01;;;;;;;19.17;17.23;;;3.40;99.90;;;;;;5071758;28;20470;-70
2021/01/03 08:05:29;;;;;;;20.63;18.13;;;3.40;99.90;;;;;;5066893;28;20463;-70
2021/01/03 08:08:02;;;;;;;19.33;17.40;;;3.40;99.90;;;;;;5051032;28;20816;-70
2021/01/03 08:10:29;;;;;;;23.07;18.43;;;3.40;99.90;;;;;;5031638;28;20457;-70
2021/01/03 08:13:02;;;;;;;19.70;17.73;;;3.40;99.90;;;;;;5055489;28;20478;-70
2021/01/03 08:15:31;;;;;;;20.77;18.57;;;3.50;99.90;;;;;;5072921;28;20895;-70
2021/01/03 08:18:03;;;;;;;20.43;18.23;;;3.40;99.90;;;;;;5075801;22;20500;-70
2021/01/03 08:20:30;;;;;;;19.47;17.43;;;3.40;99.90;;;;;;5057036;28;20456;-70
2021/01/03 08:23:15;;;;;;;18.60;16.70;;;3.40;99.90;;;;;;5069217;28;20524;-70
2021/01/03 08:25:42;;;;;;;18.20;16.50;;;3.40;99.90;;;;;;5070104;28;20439;-69
2021/01/03 08:28:12;;;;;;;19.47;17.37;;;3.50;99.90;;;;;;5059503;28;20490;-70
2021/01/03 08:30:39;;;;;;;16.93;15.33;;;3.50;99.90;;;;;;5060798;28;20436;-70
2021/01/03 08:33:11;;;;;;;17.63;15.90;;;3.40;99.90;;;;;;5054313;28;20492;-69
2021/01/03 08:35:37;;;;;;;17.07;15.27;;;3.50;99.90;;;;;;5036161;28;20535;-70
2021/01/03 08:38:04;;;;;;;19.47;17.37;;;3.50;99.90;;;;;;5040259;28;20564;-70
2021/01/03 08:40:35;;;;;;;18.30;16.50;;;3.50;99.90;;;;;;5040643;28;20453;-70
2021/01/03 08:43:05;;;;;;;17.90;16.20;;;3.50;99.90;;;;;;5040981;28;20448;-70
2021/01/03 08:45:41;;;;;;;18.17;16.37;;;3.50;99.90;;;;;;5040548;28;20430;-70
2021/01/03 08:48:11;;;;;;;19.10;17.10;;;3.60;99.90;;;;;;5033203;28;20587;-70
2021/01/03 08:50:39;;;;;;;18.03;16.17;;;3.60;99.90;;;;;;5041353;28;20471;-70
2021/01/03 08:53:08;;;;;;;17.60;15.90;;;3.60;99.90;;;;;;5040677;28;20484;-69
2021/01/03 08:55:37;;;;;;;16.50;14.90;;;3.60;99.90;;;;;;5035132;28;20444;-69
2021/01/03 08:58:05;;;;;;;16.87;15.27;;;3.60;99.90;;;;;;5036511;28;20499;-69
2021/01/03 09:00:35;;;;;;;15.47;13.97;;;3.60;99.90;;;;;;5038197;28;20821;-69
2021/01/03 09:03:03;;;;;;;17.17;15.43;;;3.70;99.90;;;;;;5037248;28;20441;-69
2021/01/03 09:05:35;;;;;;;15.53;14.03;;;3.70;99.90;;;;;;5035329;28;20492;-69
2021/01/03 09:08:04;;;;;;;14.20;12.90;;;3.70;99.90;;;;;;5034833;28;20476;-69
2021/01/03 09:10:35;;;;;;;14.93;13.53;;;3.70;99.90;;;;;;5035201;28;20457;-72
2021/01/03 09:13:10;;;;;;;14.93;12.80;;;3.80;99.90;;;;;;5035262;28;20484;-69
2021/01/03 09:15:39;;;;;;;14.73;13.40;;;3.80;99.90;;;;;;5015587;28;20731;-68
2021/01/03 09:18:16;;;;;;;8.53;6.37;;;3.80;99.90;;;;;;5026770;28;20480;-70
2021/01/03 09:20:45;;;;;;;13.17;6.50;;;5.30;99.90;;;;;;5033036;28;20463;-72
2021/01/03 09:23:14;;;;;;;17.60;5.53;;;11.70;99.90;;;;;;5033811;28;20449;-68
2021/01/03 09:25:42;;;;;;;13.70;6.27;;;13.80;99.90;;;;;;5033851;28;20449;-68
2021/01/03 09:28:11;;;;;;;8.80;4.60;;;15.40;99.90;;;;;;5037744;28;21005;-69
2021/01/03 09:30:39;;;;;;;9.77;4.50;;;16.80;99.90;;;;;;5033047;28;20452;-69
2021/01/03 09:33:12;;;;;;;10.23;4.83;;;18.20;99.90;;;;;;5034042;28;20480;-69
2021/01/03 09:36:03;;;;;;;6.40;3.97;;;19.10;99.90;;;;;;5033572;28;20453;-68
2021/01/03 09:39:08;;;;;;;5.90;4.53;;;19.50;99.90;;;;;;5033376;28;20449;-69
2021/01/03 09:41:57;;;;;;;5.77;3.40;;;19.70;99.90;;;;;;5013732;28;20445;-68
2021/01/03 09:44:30;;;;;;;9.33;3.70;;;20.00;99.90;;;;;;5014062;28;20426;-69
2021/01/03 09:47:02;;;;;;;4.27;3.30;;;20.10;99.90;;;;;;5022206;28;20469;-69
2021/01/03 09:49:41;;;;;;;4.10;3.17;;;20.30;99.90;;;;;;5032613;28;20461;-68
2021/01/03 09:52:17;;;;;;;9.03;3.70;;;20.30;99.90;;;;;;5033850;28;20455;-66
2021/01/03 09:54:52;;;;;;;10.60;4.83;;;20.40;99.90;;;;;;5033153;28;21000;-67
2021/01/03 09:57:27;;;;;;;5.27;2.63;;;20.50;99.90;;;;;;5033383;28;20471;-68
2021/01/03 09:59:55;;;;;;;5.67;3.13;;;20.90;99.90;;;;;;5033081;28;20448;-70
2021/01/03 10:02:23;;;;;;;9.73;3.40;;;21.00;99.90;;;;;;5033117;28;20452;-70
2021/01/03 10:04:49;;;;;;;5.70;2.87;;;20.90;99.90;;;;;;5039025;28;20452;-70
2021/01/03 10:07:21;;;;;;;4.80;4.40;;;20.80;99.90;;;;;;5034493;28;20475;-68
2021/01/03 10:09:53;;;;;;;4.30;4.00;;;16.30;99.90;;;;;;5031816;28;20455;-76
2021/01/03 10:12:32;;;;;;;4.67;4.27;;;15.70;99.90;;;;;;5025790;28;20459;-74
2021/01/03 10:15:14;;;;;;;4.33;3.93;;;15.40;99.90;;;;;;5032985;28;20456;-75
2021/01/03 10:17:43;;;;;;;3.97;3.67;;;15.70;99.90;;;;;;5032379;28;20482;-76
2021/01/03 10:20:31;;;;;;;4.23;3.93;;;15.20;99.90;;;;;;5034409;28;20452;-75
2021/01/03 10:22:58;;;;;;;3.90;3.60;;;14.70;99.90;;;;;;5021666;28;20546;-74
2021/01/03 10:25:25;;;;;;;4.10;3.70;;;14.40;99.90;;;;;;5013445;28;20830;-76
2021/01/03 10:28:08;;;;;;;4.47;3.73;;;14.90;99.90;;;;;;5014223;28;20847;-71
2021/01/03 10:30:35;;;;;;;3.63;3.33;;;15.00;99.90;;;;;;5015329;28;20442;-68
2021/01/03 10:33:02;;;;;;;4.13;3.50;;;14.50;99.90;;;;;;5017002;28;20854;-72
2021/01/03 10:35:28;;;;;;;3.70;3.40;;;14.70;99.90;;;;;;5025060;28;20457;-74
2021/01/03 10:37:55;;;;;;;3.33;3.13;;;14.30;99.90;;;;;;5033169;28;20464;-71
2021/01/03 10:40:22;;;;;;;3.80;3.40;;;14.10;99.90;;;;;;5033525;28;20448;-68
2021/01/03 10:42:50;;;;;;;3.90;3.60;;;12.60;99.90;;;;;;5033132;28;20441;-68
2021/01/03 10:45:17;;;;;;;4.07;3.77;;;11.60;99.90;;;;;;5033690;28;20474;-68
2021/01/03 10:47:43;;;;;;;4.93;4.37;;;10.40;99.90;;;;;;5032492;28;20468;-68
2021/01/03 10:50:12;;;;;;;4.27;3.60;;;9.50;99.90;;;;;;5021636;28;20454;-68
2021/01/03 10:52:38;;;;;;;3.70;3.40;;;8.90;99.90;;;;;;5012695;28;20445;-68
2021/01/03 10:55:05;;;;;;;3.60;3.30;;;8.80;99.90;;;;;;5012610;28;20879;-68
2021/01/03 10:57:33;;;;;;;4.20;3.90;;;8.50;99.90;;;;;;5014739;28;20480;-68
2021/01/03 10:59:59;;;;;;;4.47;4.03;;;8.00;99.90;;;;;;5015221;28;20446;-68
2021/01/03 11:02:26;;;;;;;4.50;4.10;;;7.70;99.90;;;;;;5015778;28;20820;-68
2021/01/03 11:04:52;;;;;;;4.57;4.20;;;7.50;99.90;;;;;;5014281;28;20451;-71
2021/01/03 11:07:19;;;;;;;4.30;4.00;;;7.20;99.90;;;;;;5013722;28;20488;-70
2021/01/03 11:09:47;;;;;;;3.70;3.50;;;7.10;99.90;;;;;;5014955;28;20453;-68
2021/01/03 11:12:16;;;;;;;3.80;3.50;;;6.70;99.90;;;;;;5012259;28;20456;-70
2021/01/03 11:14:43;;;;;;;3.97;3.67;;;6.50;99.90;;;;;;5012041;28;20516;-68
2021/01/03 11:17:12;;;;;;;3.43;3.17;;;6.40;99.90;;;;;;5011985;28;20489;-68
2021/01/03 11:19:39;;;;;;;4.10;3.80;;;7.10;99.90;;;;;;5012082;28;20449;-68
2021/01/03 11:22:07;;;;;;;3.73;3.43;;;6.80;99.90;;;;;;5038809;28;20445;-68
2021/01/03 11:24:33;;;;;;;4.67;4.27;;;6.30;99.90;;;;;;5011845;28;20446;-68
2021/01/03 11:27:01;;;;;;;4.67;4.27;;;6.50;99.90;;;;;;5024208;28;20479;-67
2021/01/03 11:29:28;;;;;;;3.90;3.57;;;6.20;99.90;;;;;;5029858;28;20857;-71
2021/01/03 11:31:57;;;;;;;4.40;4.03;;;6.10;99.90;;;;;;5031178;28;20457;-68
2021/01/03 11:34:26;;;;;;;4.10;3.80;;;6.10;99.90;;;;;;5031099;28;21077;-68
2021/01/03 11:36:54;;;;;;;4.30;4.00;;;6.00;99.90;;;;;;5042347;28;20475;-68
2021/01/03 11:39:21;;;;;;;4.50;4.00;;;6.00;99.90;;;;;;5051295;28;20436;-68
2021/01/03 11:41:49;;;;;;;4.33;3.93;;;5.90;99.90;;;;;;5039032;28;20453;-68
2021/01/03 11:44:16;;;;;;;3.97;3.70;;;6.10;99.90;;;;;;5031179;28;20445;-68
2021/01/03 11:46:43;;;;;;;3.90;3.70;;;6.10;99.90;;;;;;5032970;28;20472;-68
2021/01/03 11:49:10;;;;;;;6.30;4.10;;;5.90;99.90;;;;;;5035387;28;20814;-68
2021/01/03 11:51:37;;;;;;;3.90;3.70;;;5.80;99.90;;;;;;5035108;28;20980;-67
2021/01/03 11:54:03;;;;;;;4.00;3.70;;;5.90;99.90;;;;;;5034890;28;20484;-68
2021/01/03 11:56:30;;;;;;;4.40;4.10;;;5.80;99.90;;;;;;5035302;28;20979;-68
2021/01/03 11:58:56;;;;;;;4.50;4.13;;;5.70;99.90;;;;;;5035289;28;20448;-68
2021/01/03 12:01:25;;;;;;;4.07;3.77;;;5.70;99.90;;;;;;5049705;28;20451;-66
2021/01/03 12:03:52;;;;;;;4.60;4.30;;;5.80;99.90;;;;;;5055863;28;20443;-67
2021/01/03 12:06:20;;;;;;;4.47;4.07;;;5.80;99.90;;;;;;5044404;28;20457;-67
2021/01/03 12:08:47;;;;;;;4.10;3.80;;;5.80;99.90;;;;;;5035525;28;20447;-67
2021/01/03 12:11:15;;;;;;;3.87;3.53;;;5.90;99.90;;;;;;5035214;28;20487;-67
2021/01/03 12:13:45;;;;;;;4.63;4.30;;;5.90;99.90;;;;;;5035317;28;20488;-67
2021/01/03 12:16:16;;;;;;;4.50;4.20;;;5.90;99.90;;;;;;5034977;28;20816;-68
2021/01/03 12:18:42;;;;;;;4.37;4.07;;;5.90;99.90;;;;;;5035526;28;20447;-67
2021/01/03 12:21:08;;;;;;;5.10;4.60;;;5.80;99.90;;;;;;5035061;28;20460;-67
2021/01/03 12:23:36;;;;;;;4.63;4.23;;;5.80;99.90;;;;;;5015527;28;21011;-67
2021/01/03 12:26:02;;;;;;;4.13;3.83;;;5.70;99.90;;;;;;5015425;28;20445;-67
2021/01/03 12:28:28;;;;;;;8.10;3.90;;;5.70;99.90;;;;;;5014500;28;20445;-67
2021/01/03 12:30:55;;;;;;;5.00;4.60;;;5.70;99.90;;;;;;5015240;28;20822;-67
2021/01/03 12:33:21;;;;;;;4.70;4.40;;;5.60;99.90;;;;;;5015757;28;20481;-67
2021/01/03 12:35:48;;;;;;;3.53;3.00;;;5.50;99.90;;;;;;5015166;28;20941;-67
2021/01/03 12:38:14;;;;;;;4.80;4.50;;;8.40;99.90;;;;;;5029672;28;20469;-67
2021/01/03 12:40:43;;;;;;;4.43;4.10;;;6.00;99.90;;;;;;5051042;28;20457;-70
2021/01/03 12:43:09;;;;;;;5.33;4.00;;;5.60;99.90;;;;;;5054544;28;20455;-71
2021/01/03 12:45:35;;;;;;;4.53;4.23;;;5.50;99.90;;;;;;5053349;28;20455;-71
2021/01/03 12:48:02;;;;;;;5.23;4.83;;;5.50;99.90;;;;;;5054682;28;20464;-70
2021/01/03 12:50:28;;;;;;;6.23;4.23;;;5.30;99.90;;;;;;5054931;28;20792;-72
2021/01/03 12:52:54;;;;;;;4.40;4.10;;;5.70;99.90;;;;;;5039667;28;20456;-72
2021/01/03 12:55:20;;;;;;;4.53;4.23;;;5.40;99.90;;;;;;5029590;28;20450;-72
2021/01/03 12:57:48;;;;;;;4.47;4.07;;;5.30;99.90;;;;;;5035306;28;20471;-69